createdAt,value
2023-12-07T00:01:31.463Z,102074.97
2023-12-07T00:04:04.388Z,102078.69
2023-12-07T00:06:33.955Z,102072.66
2023-12-07T00:09:03.139Z,102083.97
2023-12-07T00:11:29.587Z,102076.44
2023-12-07T00:13:56.009Z,102068.94
2023-12-07T00:16:22.450Z,102072.75
2023-12-07T00:18:49.297Z,102079.63
2023-12-07T00:21:18.192Z,102079.56
2023-12-07T00:23:44.727Z,102080.41
2023-12-07T00:26:15.052Z,102080.59
2023-12-07T00:28:44.823Z,102073.72
2023-12-07T00:33:53.149Z,102065.25
2023-12-07T00:36:21.723Z,102067.00
2023-12-07T00:38:52.280Z,102064.34
2023-12-07T00:41:24.510Z,102064.34
2023-12-07T00:43:51.043Z,102066.34
2023-12-07T00:46:17.489Z,102059.75
2023-12-07T00:48:49.389Z,102059.94
2023-12-07T00:51:16.509Z,102074.44
2023-12-07T00:53:42.949Z,102059.75
2023-12-07T00:56:12.862Z,102063.06
2023-12-07T00:58:39.827Z,102066.41
2023-12-07T01:01:09.104Z,102063.88
2023-12-07T01:03:41.931Z,102061.44
2023-12-07T01:06:09.078Z,102065.06
2023-12-07T01:08:44.957Z,102064.38
2023-12-07T01:11:11.400Z,102060.22
2023-12-07T01:16:22.913Z,102064.06
2023-12-07T01:18:52.479Z,102067.59
2023-12-07T01:24:13.350Z,102069.34
2023-12-07T01:26:53.026Z,102075.22
2023-12-07T01:29:20.026Z,102079.47
2023-12-07T01:31:52.288Z,102093.94
2023-12-07T01:34:23.164Z,102079.75
2023-12-07T01:36:52.132Z,102081.44
2023-12-07T01:39:22.371Z,102078.78
2023-12-07T01:44:29.702Z,102080.41
2023-12-07T01:46:59.552Z,102084.53
2023-12-07T01:49:26.094Z,102079.56
2023-12-07T01:51:52.969Z,102086.53
2023-12-07T01:54:23.906Z,102087.28
2023-12-07T01:56:52.101Z,102088.53
2023-12-07T01:59:21.378Z,102091.16
2023-12-07T02:01:47.928Z,102086.69
2023-12-07T02:04:19.071Z,102081.59
2023-12-07T02:06:49.000Z,102084.03
2023-12-07T02:09:18.398Z,102094.03
2023-12-07T02:11:45.155Z,102081.94
2023-12-07T02:14:22.115Z,102080.53
2023-12-07T02:17:00.586Z,102073.88
2023-12-07T02:20:00.736Z,102073.88
2023-12-07T02:22:38.171Z,102074.59
2023-12-07T02:25:10.342Z,102076.28
2023-12-07T02:27:39.807Z,102082.97
2023-12-07T02:30:12.077Z,102081.13
2023-12-07T02:32:48.930Z,102083.56
2023-12-07T02:35:18.961Z,102079.22
2023-12-07T02:37:55.725Z,102073.31
2023-12-07T02:40:26.564Z,102088.72
2023-12-07T02:42:58.056Z,102082.66
2023-12-07T02:45:27.322Z,102085.91
2023-12-07T02:47:58.564Z,102080.47
2023-12-07T02:50:30.831Z,102078.63
2023-12-07T02:53:00.491Z,102073.06
2023-12-07T02:55:27.222Z,102066.91
2023-12-07T02:57:56.504Z,102065.13
2023-12-07T03:00:23.059Z,102068.63
2023-12-07T03:02:51.708Z,102065.25
2023-12-07T03:05:23.962Z,102074.72
2023-12-07T03:07:50.391Z,102078.16
2023-12-07T03:13:04.949Z,102081.00
2023-12-07T03:15:31.388Z,102079.47
2023-12-07T03:17:57.894Z,102081.78
2023-12-07T03:20:33.774Z,102081.00
2023-12-07T03:23:00.362Z,102084.50
2023-12-07T03:25:31.639Z,102080.34
2023-12-07T03:27:58.091Z,102091.66
2023-12-07T03:30:24.537Z,102092.41
2023-12-07T03:32:51.105Z,102087.38
2023-12-07T03:35:21.497Z,102088.34
2023-12-07T03:37:47.942Z,102082.16
2023-12-07T03:40:17.648Z,102086.56
2023-12-07T03:42:51.830Z,102088.22
2023-12-07T03:45:26.872Z,102093.38
2023-12-07T03:47:53.444Z,102093.38
2023-12-07T03:50:29.106Z,102093.56
2023-12-07T03:52:55.608Z,102095.50
2023-12-07T03:55:27.393Z,102088.19
2023-12-07T03:57:57.460Z,102095.75
2023-12-07T04:00:28.432Z,102094.84
2023-12-07T04:02:57.910Z,102091.38
2023-12-07T04:05:26.259Z,102090.53
2023-12-07T04:07:52.765Z,102098.28
2023-12-07T04:10:19.262Z,102093.16
2023-12-07T04:12:45.711Z,102095.94
2023-12-07T04:15:18.507Z,102090.00
2023-12-07T04:17:47.977Z,102102.97
2023-12-07T04:20:20.383Z,102098.97
2023-12-07T04:22:50.646Z,102080.91
2023-12-07T04:25:25.974Z,102091.09
2023-12-07T04:27:52.396Z,102088.47
2023-12-07T04:30:22.278Z,102095.41
2023-12-07T04:32:51.531Z,102101.41
2023-12-07T04:35:18.036Z,102095.28
2023-12-07T04:37:46.857Z,102095.28
2023-12-07T04:40:16.784Z,102096.25
2023-12-07T04:42:43.431Z,102092.81
2023-12-07T04:45:13.182Z,102099.09
2023-12-07T04:47:39.784Z,102103.28
2023-12-07T04:50:06.660Z,102092.69
2023-12-07T04:52:42.246Z,102090.00
2023-12-07T04:55:16.756Z,102093.28
2023-12-07T04:57:44.493Z,102080.28
2023-12-07T05:00:11.320Z,102087.03
2023-12-07T05:02:46.858Z,102083.50
2023-12-07T05:05:13.518Z,102081.78
2023-12-07T05:07:42.740Z,102085.97
2023-12-07T05:10:12.394Z,102075.56
2023-12-07T05:12:46.468Z,102080.66
2023-12-07T05:15:15.626Z,102077.19
2023-12-07T05:20:27.995Z,102071.00
2023-12-07T05:22:57.672Z,102076.81
2023-12-07T05:25:24.219Z,102070.81
2023-12-07T05:27:53.821Z,102069.97
2023-12-07T05:30:23.228Z,102069.13
2023-12-07T05:32:54.112Z,102065.91
2023-12-07T05:35:24.629Z,102072.66
2023-12-07T05:37:53.563Z,102072.59
2023-12-07T05:40:26.227Z,102077.63
2023-12-07T05:42:52.720Z,102066.44
2023-12-07T05:48:04.894Z,102059.31
2023-12-07T05:50:34.519Z,102063.31
2023-12-07T05:55:49.952Z,102066.81
2023-12-07T05:58:16.683Z,102064.16
2023-12-07T06:00:44.901Z,102064.97
2023-12-07T06:03:17.195Z,102062.97
2023-12-07T06:05:48.701Z,102058.59
2023-12-07T06:08:15.100Z,102056.97
2023-12-07T06:10:44.768Z,102067.06
2023-12-07T06:13:16.942Z,102064.28
2023-12-07T06:15:46.548Z,102073.81
2023-12-07T06:18:13.138Z,102074.09
2023-12-07T06:20:42.779Z,102081.00
2023-12-07T06:23:13.690Z,102079.25
2023-12-07T06:25:53.573Z,102071.56
2023-12-07T06:28:38.755Z,102081.78
2023-12-07T06:31:11.660Z,102087.06
2023-12-07T06:33:38.187Z,102091.38
2023-12-07T06:36:06.140Z,102092.16
2023-12-07T06:38:32.696Z,102079.25
2023-12-07T06:41:03.170Z,102091.97
2023-12-07T06:43:33.958Z,102089.19
2023-12-07T06:46:03.635Z,102086.88
2023-12-07T06:48:36.638Z,102079.00
2023-12-07T06:51:06.353Z,102087.59
2023-12-07T06:53:38.629Z,102089.44
2023-12-07T06:56:06.509Z,102088.53
2023-12-07T06:58:33.089Z,102084.63
2023-12-07T07:01:02.349Z,102089.91
2023-12-07T07:03:31.818Z,102097.59
2023-12-07T07:06:02.755Z,102090.03
2023-12-07T07:08:33.217Z,102088.34
2023-12-07T07:10:59.707Z,102087.34
2023-12-07T07:13:34.331Z,102076.75
2023-12-07T07:16:00.795Z,102083.44
2023-12-07T07:21:15.658Z,102090.22
2023-12-07T07:23:45.875Z,102095.94
2023-12-07T07:26:17.840Z,102091.28
2023-12-07T07:28:44.777Z,102091.63
2023-12-07T07:31:14.769Z,102090.34
2023-12-07T07:33:41.362Z,102099.13
2023-12-07T07:36:08.339Z,102103.31
2023-12-07T07:38:34.847Z,102113.63
2023-12-07T07:41:04.597Z,102105.41
2023-12-07T07:43:31.122Z,102108.13
2023-12-07T07:45:57.583Z,102100.09
2023-12-07T07:48:29.405Z,102096.69
2023-12-07T07:50:55.985Z,102092.44
2023-12-07T07:53:22.466Z,102099.06
2023-12-07T07:55:51.854Z,102105.34
2023-12-07T07:58:21.526Z,102103.44
2023-12-07T08:00:52.326Z,102105.38
2023-12-07T08:03:22.139Z,102107.19
2023-12-07T08:05:48.805Z,102110.16
2023-12-07T08:08:19.936Z,102100.09
2023-12-07T08:10:54.525Z,102100.25
2023-12-07T08:13:26.108Z,102104.34
2023-12-07T08:15:55.953Z,102100.94
2023-12-07T08:18:24.898Z,102100.72
2023-12-07T08:20:51.332Z,102102.56
2023-12-07T08:23:17.792Z,102105.81
2023-12-07T08:25:47.454Z,102107.59
2023-12-07T08:28:17.110Z,102107.59
2023-12-07T08:30:50.967Z,102099.66
2023-12-07T08:33:17.534Z,102107.59
2023-12-07T08:35:43.966Z,102106.94
2023-12-07T08:40:56.906Z,102097.72
2023-12-07T08:43:24.125Z,102102.88
2023-12-07T08:48:42.649Z,102105.22
2023-12-07T08:51:11.504Z,102100.50
2023-12-07T08:53:41.587Z,102095.50
2023-12-07T08:56:11.571Z,102095.47
2023-12-07T08:58:45.458Z,102098.66
2023-12-07T09:01:25.484Z,102092.06
2023-12-07T09:03:57.322Z,102083.84
2023-12-07T09:06:26.941Z,102090.38
2023-12-07T09:08:57.128Z,102097.56
2023-12-07T09:11:24.082Z,102093.59
2023-12-07T09:13:59.871Z,102086.84
2023-12-07T09:16:27.300Z,102082.63
2023-12-07T09:18:57.049Z,102075.13
2023-12-07T09:21:23.473Z,102069.00
2023-12-07T09:23:49.848Z,102071.56
2023-12-07T09:26:20.811Z,102083.25
2023-12-07T09:28:47.771Z,102078.56
2023-12-07T09:31:14.481Z,102083.47
2023-12-07T09:33:44.210Z,102078.41
2023-12-07T09:36:12.496Z,102081.41
2023-12-07T09:38:41.317Z,102088.47
2023-12-07T09:41:07.786Z,102088.59
2023-12-07T09:43:34.220Z,102090.09
2023-12-07T09:46:01.178Z,102087.63
2023-12-07T09:48:27.724Z,102091.03
2023-12-07T09:51:00.243Z,102089.31
2023-12-07T09:56:16.089Z,102094.97
2023-12-07T09:58:43.421Z,102082.75
2023-12-07T10:01:10.391Z,102079.59
2023-12-07T10:03:37.222Z,102077.59
2023-12-07T10:06:07.230Z,102069.28
2023-12-07T10:08:40.986Z,102076.66
2023-12-07T10:11:13.040Z,102059.97
2023-12-07T10:13:43.205Z,102051.50
2023-12-07T10:16:16.356Z,102048.09
2023-12-07T10:18:46.125Z,102046.13
2023-12-07T10:21:16.017Z,102042.22
2023-12-07T10:23:57.564Z,102038.06
2023-12-07T10:26:24.412Z,102027.50
2023-12-07T10:28:58.756Z,102028.34
2023-12-07T10:31:25.652Z,102021.81
2023-12-07T10:34:01.685Z,102025.44
2023-12-07T10:36:28.534Z,102030.25
2023-12-07T10:38:58.249Z,102026.28
2023-12-07T10:41:25.938Z,102022.09
2023-12-07T10:44:01.501Z,102022.78
2023-12-07T10:46:28.514Z,102017.84
2023-12-07T10:49:02.951Z,102014.00
2023-12-07T10:51:29.532Z,102006.47
2023-12-07T10:53:57.775Z,101997.03
2023-12-07T10:56:47.693Z,101998.25
2023-12-07T10:59:23.628Z,101994.28
2023-12-07T11:02:01.236Z,101994.13
2023-12-07T11:04:38.167Z,101999.13
2023-12-07T11:07:13.267Z,101995.38
2023-12-07T11:09:53.784Z,101991.84
2023-12-07T11:12:35.381Z,101988.44
2023-12-07T11:15:06.321Z,101982.66
2023-12-07T11:17:56.937Z,101976.25
2023-12-07T11:20:59.815Z,101970.94
2023-12-07T11:23:29.965Z,101968.88
2023-12-07T11:25:57.459Z,101965.25
2023-12-07T11:31:30.032Z,101948.13
2023-12-07T11:33:56.578Z,101949.84
2023-12-07T11:36:29.505Z,101944.81
2023-12-07T11:39:04.191Z,101934.28
2023-12-07T11:41:41.224Z,101935.31
2023-12-07T11:44:16.465Z,101922.16
2023-12-07T11:46:42.933Z,101918.84
2023-12-07T11:49:21.122Z,101914.31
2023-12-07T11:51:55.227Z,101922.34
2023-12-07T11:54:24.623Z,101924.78
2023-12-07T11:56:59.429Z,101920.84
2023-12-07T11:59:33.911Z,101919.16
2023-12-07T12:02:07.348Z,101917.03
2023-12-07T12:04:33.945Z,101915.81
2023-12-07T12:07:10.096Z,101905.03
2023-12-07T12:09:36.626Z,101898.56
2023-12-07T12:12:07.269Z,101888.72
2023-12-07T12:14:33.976Z,101892.66
2023-12-07T12:17:00.430Z,101891.84
2023-12-07T12:19:33.409Z,101879.16
2023-12-07T12:22:05.984Z,101880.25
2023-12-07T12:24:40.889Z,101880.97
2023-12-07T12:27:20.704Z,101871.38
2023-12-07T12:29:55.188Z,101865.19
2023-12-07T12:32:24.459Z,101865.28
2023-12-07T12:34:56.817Z,101859.38
2023-12-07T12:37:26.676Z,101853.94
2023-12-07T12:39:53.416Z,101850.94
2023-12-07T12:42:29.756Z,101849.19
2023-12-07T12:44:56.236Z,101842.91
2023-12-07T12:47:26.556Z,101847.75
2023-12-07T12:49:53.430Z,101824.53
2023-12-07T12:52:28.159Z,101824.13
2023-12-07T12:54:58.373Z,101820.53
2023-12-07T12:57:31.160Z,101815.69
2023-12-07T13:00:01.716Z,101807.31
2023-12-07T13:02:31.205Z,101795.75
2023-12-07T13:05:00.991Z,101792.28
2023-12-07T13:07:28.006Z,101786.09
2023-12-07T13:09:55.646Z,101784.91
2023-12-07T13:12:28.867Z,101781.72
2023-12-07T13:15:01.176Z,101774.38
2023-12-07T13:17:27.966Z,101770.56
2023-12-07T13:19:55.812Z,101762.03
2023-12-07T13:22:24.690Z,101752.44
2023-12-07T13:24:51.401Z,101750.13
2023-12-07T13:27:19.000Z,101734.75
2023-12-07T13:29:47.806Z,101733.44
2023-12-07T13:32:17.102Z,101733.94
2023-12-07T13:34:44.173Z,101740.53
2023-12-07T13:37:13.343Z,101736.72
2023-12-07T13:39:39.798Z,101738.56
2023-12-07T13:42:08.475Z,101732.47
2023-12-07T13:44:40.738Z,101723.78
2023-12-07T13:47:07.196Z,101726.53
2023-12-07T13:49:36.591Z,101723.88
2023-12-07T13:52:08.451Z,101723.22
2023-12-07T13:54:51.170Z,101718.41
2023-12-07T13:57:21.941Z,101711.28
2023-12-07T13:59:52.618Z,101701.09
2023-12-07T14:02:20.416Z,101707.13
2023-12-07T14:04:52.540Z,101705.34
2023-12-07T14:07:25.582Z,101695.06
2023-12-07T14:09:58.584Z,101690.25
2023-12-07T14:12:30.513Z,101689.25
2023-12-07T14:15:00.121Z,101676.28
2023-12-07T14:17:35.144Z,101673.06
2023-12-07T14:23:13.296Z,101679.13
2023-12-07T14:25:47.612Z,101673.22
2023-12-07T14:28:18.627Z,101679.69
2023-12-07T14:30:48.372Z,101671.53
2023-12-07T14:33:22.251Z,101672.38
2023-12-07T14:35:49.844Z,101682.63
2023-12-07T14:38:16.587Z,101678.13
2023-12-07T14:40:45.381Z,101675.63
2023-12-07T14:43:14.996Z,101671.34
2023-12-07T14:48:23.086Z,101679.00
2023-12-07T14:50:57.341Z,101667.06
2023-12-07T14:53:25.042Z,101663.63
2023-12-07T14:55:53.212Z,101656.72
2023-12-07T14:58:22.683Z,101656.97
2023-12-07T15:00:55.924Z,101657.06
2023-12-07T15:03:25.412Z,101654.47
2023-12-07T15:05:57.986Z,101646.13
2023-12-07T15:08:27.245Z,101647.97
2023-12-07T15:10:57.929Z,101639.72
2023-12-07T15:13:31.973Z,101640.06
2023-12-07T15:15:58.862Z,101638.59
2023-12-07T15:18:26.308Z,101631.91
2023-12-07T15:20:52.859Z,101632.25
2023-12-07T15:23:19.380Z,101625.59
2023-12-07T15:25:49.930Z,101624.84
2023-12-07T15:28:16.299Z,101624.09
2023-12-07T15:30:42.707Z,101611.16
2023-12-07T15:33:13.622Z,101610.44
2023-12-07T15:35:43.503Z,101610.09
2023-12-07T15:38:14.288Z,101600.41
2023-12-07T15:40:44.345Z,101599.72
2023-12-07T15:43:10.969Z,101599.63
2023-12-07T15:45:40.493Z,101595.03
2023-12-07T15:48:07.185Z,101593.19
2023-12-07T15:50:33.788Z,101599.94
2023-12-07T15:53:04.875Z,101588.00
2023-12-07T15:55:31.298Z,101581.16
2023-12-07T15:57:58.552Z,101581.06
2023-12-07T16:00:28.354Z,101578.41
2023-12-07T16:02:56.190Z,101573.03
2023-12-07T16:05:34.463Z,101563.44
2023-12-07T16:08:01.071Z,101562.50
2023-12-07T16:10:33.542Z,101560.69
2023-12-07T16:13:00.166Z,101555.41
2023-12-07T16:15:26.713Z,101549.56
2023-12-07T16:18:02.282Z,101547.16
2023-12-07T16:20:28.891Z,101543.75
2023-12-07T16:22:57.765Z,101542.06
2023-12-07T16:25:27.379Z,101530.97
2023-12-07T16:27:53.871Z,101530.16
2023-12-07T16:30:23.566Z,101531.16
2023-12-07T16:32:55.302Z,101526.06
2023-12-07T16:35:30.302Z,101527.00
2023-12-07T16:37:56.712Z,101526.16
2023-12-07T16:40:26.869Z,101520.91
2023-12-07T16:42:57.519Z,101517.50
2023-12-07T16:45:27.384Z,101510.72
2023-12-07T16:47:57.103Z,101503.81
2023-12-07T16:50:23.534Z,101509.81
2023-12-07T16:52:59.533Z,101506.38
2023-12-07T16:55:26.471Z,101502.06
2023-12-07T16:57:56.768Z,101499.47
2023-12-07T17:00:26.865Z,101502.78
2023-12-07T17:03:01.724Z,101496.78
2023-12-07T17:05:28.228Z,101493.28
2023-12-07T17:07:54.902Z,101488.09
2023-12-07T17:10:28.836Z,101486.44
2023-12-07T17:12:55.318Z,101487.16
2023-12-07T17:15:22.079Z,101491.44
2023-12-07T17:17:52.939Z,101491.34
2023-12-07T17:20:19.725Z,101480.91
2023-12-07T17:22:52.161Z,101482.66
2023-12-07T17:25:20.283Z,101470.72
2023-12-07T17:27:56.650Z,101455.28
2023-12-07T17:30:24.688Z,101444.94
2023-12-07T17:32:57.415Z,101442.25
2023-12-07T17:35:23.987Z,101427.63
2023-12-07T17:37:50.432Z,101419.88
2023-12-07T17:40:21.096Z,101407.78
2023-12-07T17:42:47.606Z,101404.34
2023-12-07T17:45:14.244Z,101403.44
2023-12-07T17:47:50.140Z,101410.09
2023-12-07T17:50:16.912Z,101396.94
2023-12-07T17:52:52.624Z,101398.63
2023-12-07T17:55:19.052Z,101388.19
2023-12-07T17:57:48.349Z,101387.16
2023-12-07T18:00:18.046Z,101386.41
2023-12-07T18:02:51.944Z,101390.50
2023-12-07T18:05:21.568Z,101396.22
2023-12-07T18:07:50.732Z,101398.53
2023-12-07T18:10:17.608Z,101396.56
2023-12-07T18:12:47.652Z,101398.94
2023-12-07T18:15:20.046Z,101395.34
2023-12-07T18:17:50.456Z,101396.09
2023-12-07T18:20:29.304Z,101396.91
2023-12-07T18:23:07.132Z,101400.91
2023-12-07T18:25:33.660Z,101402.44
2023-12-07T18:30:45.111Z,101407.16
2023-12-07T18:33:14.923Z,101405.28
2023-12-07T18:35:43.591Z,101400.97
2023-12-07T18:38:15.525Z,101396.50
2023-12-07T18:40:43.671Z,101392.16
2023-12-07T18:43:14.927Z,101385.31
2023-12-07T18:45:42.516Z,101373.19
2023-12-07T18:48:15.504Z,101362.00
2023-12-07T18:50:44.972Z,101361.16
2023-12-07T18:53:19.009Z,101359.31
2023-12-07T18:55:48.219Z,101351.53
2023-12-07T18:58:20.805Z,101354.13
2023-12-07T19:00:50.429Z,101345.22
2023-12-07T19:03:19.715Z,101332.47
2023-12-07T19:05:46.364Z,101327.19
2023-12-07T19:08:13.307Z,101328.13
2023-12-07T19:10:53.726Z,101333.22
2023-12-07T19:13:20.253Z,101337.47
2023-12-07T19:15:51.150Z,101334.75
2023-12-07T19:18:18.558Z,101320.91
2023-12-07T19:20:45.281Z,101314.78
2023-12-07T19:23:15.000Z,101313.22
2023-12-07T19:25:41.521Z,101307.94
2023-12-07T19:28:08.057Z,101294.25
2023-12-07T19:30:39.576Z,101288.44
2023-12-07T19:33:06.168Z,101289.06
2023-12-07T19:35:32.987Z,101273.53
2023-12-07T19:38:03.764Z,101263.28
2023-12-07T19:40:30.409Z,101259.75
2023-12-07T19:43:04.625Z,101246.88
2023-12-07T19:45:35.634Z,101244.59
2023-12-07T19:48:03.123Z,101233.41
2023-12-07T19:50:35.866Z,101233.41
2023-12-07T19:53:06.929Z,101238.50
2023-12-07T19:55:33.595Z,101238.38
2023-12-07T19:58:07.678Z,101245.25
2023-12-07T20:00:42.185Z,101236.44
2023-12-07T20:03:16.547Z,101221.63
2023-12-07T20:05:43.565Z,101200.06
2023-12-07T20:08:10.431Z,101200.91
2023-12-07T20:10:46.140Z,101202.53
2023-12-07T20:13:12.717Z,101202.34
2023-12-07T20:15:48.975Z,101200.59
2023-12-07T20:18:15.986Z,101201.13
2023-12-07T20:20:45.878Z,101196.03
2023-12-07T20:23:12.493Z,101187.22
2023-12-07T20:25:38.915Z,101178.63
2023-12-07T20:28:06.886Z,101171.66
2023-12-07T20:30:36.066Z,101180.28
2023-12-07T20:33:02.551Z,101169.91
2023-12-07T20:35:31.839Z,101159.44
2023-12-07T20:38:01.216Z,101157.69
2023-12-07T20:40:27.666Z,101155.81
2023-12-07T20:42:56.652Z,101144.75
2023-12-07T20:45:26.261Z,101150.84
2023-12-07T20:47:55.463Z,101134.38
2023-12-07T20:50:27.031Z,101129.91
2023-12-07T20:52:56.619Z,101114.47
2023-12-07T20:55:23.480Z,101106.69
2023-12-07T20:57:52.399Z,101113.44
2023-12-07T21:00:19.275Z,101109.91
2023-12-07T21:02:48.668Z,101106.56
2023-12-07T21:05:19.414Z,101108.97
2023-12-07T21:07:59.074Z,101089.28
2023-12-07T21:10:26.342Z,101085.75
2023-12-07T21:12:58.601Z,101077.97
2023-12-07T21:15:25.999Z,101085.84
2023-12-07T21:18:01.741Z,101078.19
2023-12-07T21:20:28.626Z,101076.44
2023-12-07T21:23:04.316Z,101077.50
2023-12-07T21:25:30.761Z,101069.59
2023-12-07T21:28:07.020Z,101069.59
2023-12-07T21:30:33.647Z,101066.81
2023-12-07T21:33:03.591Z,101068.66
2023-12-07T21:35:30.269Z,101079.97
2023-12-07T21:37:57.009Z,101075.69
2023-12-07T21:40:23.419Z,101066.06
2023-12-07T21:42:50.154Z,101049.56
2023-12-07T21:45:20.548Z,101048.56
2023-12-07T21:47:57.209Z,101036.41
2023-12-07T21:50:23.771Z,101037.97
2023-12-07T21:53:04.685Z,101027.59
2023-12-07T21:55:39.333Z,101007.69
2023-12-07T21:58:05.787Z,101006.03
2023-12-07T22:00:35.352Z,101003.44
2023-12-07T22:03:05.267Z,101012.88
2023-12-07T22:05:32.233Z,101010.38
2023-12-07T22:08:10.350Z,101000.84
2023-12-07T22:10:39.253Z,100998.25
2023-12-07T22:13:05.784Z,100993.81
2023-12-07T22:15:35.993Z,100981.19
2023-12-07T22:18:12.852Z,100979.28
2023-12-07T22:20:39.423Z,100980.47
2023-12-07T22:23:09.380Z,100983.88
2023-12-07T22:25:38.590Z,100985.53
2023-12-07T22:28:05.037Z,100991.44
2023-12-07T22:30:34.458Z,100982.59
2023-12-07T22:33:01.016Z,100979.19
2023-12-07T22:35:36.234Z,100987.56
2023-12-07T22:38:05.931Z,100984.25
2023-12-07T22:43:17.080Z,100990.16
2023-12-07T22:45:46.217Z,100988.28
2023-12-07T22:48:13.436Z,100978.03
2023-12-07T22:50:42.718Z,100977.31
2023-12-07T22:53:12.118Z,100974.63
2023-12-07T22:55:40.775Z,100973.81
2023-12-07T22:58:07.564Z,100956.69
2023-12-07T23:00:37.030Z,100950.09
2023-12-07T23:03:06.028Z,100981.28
2023-12-07T23:05:32.802Z,100996.63
2023-12-07T23:08:00.078Z,101025.13
2023-12-07T23:10:26.820Z,101025.72
2023-12-07T23:12:57.024Z,101032.34
2023-12-07T23:15:23.462Z,101038.25
2023-12-07T23:17:50.058Z,101010.56
2023-12-07T23:20:21.479Z,100995.00
2023-12-07T23:22:51.754Z,100988.19
2023-12-07T23:25:22.217Z,100981.13
2023-12-07T23:27:51.640Z,100973.47
2023-12-07T23:30:21.914Z,100969.94
2023-12-07T23:32:51.837Z,100967.34
2023-12-07T23:35:18.743Z,100969.09
2023-12-07T23:37:46.252Z,100965.91
2023-12-07T23:40:16.656Z,100964.34
2023-12-07T23:42:43.087Z,100973.59
2023-12-07T23:45:13.247Z,100972.53
2023-12-07T23:47:39.826Z,100964.03
2023-12-07T23:50:06.720Z,100971.91
2023-12-07T23:52:36.271Z,100968.28
2023-12-07T23:55:06.373Z,100962.16
2023-12-07T23:57:38.408Z,100955.44
